sensor_id;sensor_type;location;lat;lon;timestamp;P1;durP1;ratioP1;P2;durP2;ratioP2
9948;SDS011;5013;51.840;8.276;2023-05-29T00:00:25;12.10;;;4.43;;
9948;SDS011;5013;51.840;8.276;2023-05-29T00:02:50;16.10;;;4.80;;
9948;SDS011;5013;51.840;8.276;2023-05-29T00:05:17;12.63;;;4.30;;
9948;SDS011;5013;51.840;8.276;2023-05-29T00:07:42;7.63;;;4.10;;
9948;SDS011;5013;51.840;8.276;2023-05-29T00:10:09;8.30;;;4.63;;
9948;SDS011;5013;51.840;8.276;2023-05-29T00:12:36;10.30;;;3.83;;
9948;SDS011;5013;51.840;8.276;2023-05-29T00:15:03;10.97;;;4.03;;
9948;SDS011;5013;51.840;8.276;2023-05-29T00:17:29;11.13;;;4.30;;
9948;SDS011;5013;51.840;8.276;2023-05-29T00:19:58;14.57;;;4.23;;
9948;SDS011;5013;51.840;8.276;2023-05-29T00:22:26;6.60;;;3.50;;
9948;SDS011;5013;51.840;8.276;2023-05-29T00:24:52;12.13;;;4.47;;
9948;SDS011;5013;51.840;8.276;2023-05-29T00:27:17;10.60;;;4.33;;
9948;SDS011;5013;51.840;8.276;2023-05-29T00:29:43;10.43;;;4.00;;
9948;SDS011;5013;51.840;8.276;2023-05-29T00:32:10;10.73;;;4.30;;
9948;SDS011;5013;51.840;8.276;2023-05-29T00:34:36;13.20;;;4.30;;
9948;SDS011;5013;51.840;8.276;2023-05-29T00:37:01;14.40;;;4.47;;
9948;SDS011;5013;51.840;8.276;2023-05-29T00:39:27;11.60;;;3.93;;
9948;SDS011;5013;51.840;8.276;2023-05-29T00:41:53;17.67;;;4.23;;
9948;SDS011;5013;51.840;8.276;2023-05-29T00:44:20;15.90;;;4.43;;
9948;SDS011;5013;51.840;8.276;2023-05-29T00:46:46;17.43;;;4.70;;
9948;SDS011;5013;51.840;8.276;2023-05-29T00:49:14;11.93;;;3.67;;
9948;SDS011;5013;51.840;8.276;2023-05-29T00:51:40;13.57;;;4.27;;
9948;SDS011;5013;51.840;8.276;2023-05-29T00:54:07;18.37;;;4.77;;
9948;SDS011;5013;51.840;8.276;2023-05-29T00:56:38;10.73;;;3.47;;
9948;SDS011;5013;51.840;8.276;2023-05-29T00:59:04;12.63;;;4.13;;
9948;SDS011;5013;51.840;8.276;2023-05-29T01:01:30;16.97;;;4.17;;
9948;SDS011;5013;51.840;8.276;2023-05-29T01:03:57;16.53;;;4.77;;
9948;SDS011;5013;51.840;8.276;2023-05-29T01:06:25;17.00;;;4.70;;
9948;SDS011;5013;51.840;8.276;2023-05-29T01:08:51;19.23;;;4.80;;
9948;SDS011;5013;51.840;8.276;2023-05-29T01:13:50;16.80;;;5.13;;
9948;SDS011;5013;51.840;8.276;2023-05-29T01:16:30;15.83;;;4.70;;
9948;SDS011;5013;51.840;8.276;2023-05-29T01:19:23;16.57;;;5.00;;
9948;SDS011;5013;51.840;8.276;2023-05-29T01:24:56;17.60;;;4.23;;
9948;SDS011;5013;51.840;8.276;2023-05-29T01:27:29;16.57;;;5.33;;
9948;SDS011;5013;51.840;8.276;2023-05-29T01:29:57;20.90;;;4.93;;
9948;SDS011;5013;51.840;8.276;2023-05-29T01:32:23;17.30;;;4.70;;
9948;SDS011;5013;51.840;8.276;2023-05-29T01:34:50;15.03;;;5.00;;
9948;SDS011;5013;51.840;8.276;2023-05-29T01:37:16;13.27;;;4.20;;
9948;SDS011;5013;51.840;8.276;2023-05-29T01:39:42;22.90;;;5.17;;
9948;SDS011;5013;51.840;8.276;2023-05-29T01:42:08;14.77;;;4.40;;
9948;SDS011;5013;51.840;8.276;2023-05-29T01:44:34;17.10;;;5.17;;
9948;SDS011;5013;51.840;8.276;2023-05-29T01:47:00;17.80;;;5.30;;
9948;SDS011;5013;51.840;8.276;2023-05-29T01:49:26;15.43;;;4.27;;
9948;SDS011;5013;51.840;8.276;2023-05-29T01:51:54;20.33;;;5.07;;
9948;SDS011;5013;51.840;8.276;2023-05-29T01:54:20;19.80;;;4.90;;
9948;SDS011;5013;51.840;8.276;2023-05-29T01:56:46;19.57;;;5.10;;
9948;SDS011;5013;51.840;8.276;2023-05-29T01:59:12;18.70;;;4.53;;
9948;SDS011;5013;51.840;8.276;2023-05-29T02:01:39;15.37;;;5.10;;
9948;SDS011;5013;51.840;8.276;2023-05-29T02:04:05;18.47;;;4.43;;
9948;SDS011;5013;51.840;8.276;2023-05-29T02:06:30;18.10;;;4.70;;
9948;SDS011;5013;51.840;8.276;2023-05-29T02:08:58;20.73;;;5.77;;
9948;SDS011;5013;51.840;8.276;2023-05-29T02:11:23;21.63;;;5.10;;
9948;SDS011;5013;51.840;8.276;2023-05-29T02:13:50;16.77;;;5.07;;
9948;SDS011;5013;51.840;8.276;2023-05-29T02:16:17;16.80;;;4.47;;
9948;SDS011;5013;51.840;8.276;2023-05-29T02:18:45;22.53;;;5.37;;
9948;SDS011;5013;51.840;8.276;2023-05-29T02:21:11;23.40;;;4.63;;
9948;SDS011;5013;51.840;8.276;2023-05-29T02:23:37;15.50;;;4.37;;
9948;SDS011;5013;51.840;8.276;2023-05-29T02:26:02;17.40;;;4.17;;
9948;SDS011;5013;51.840;8.276;2023-05-29T02:28:28;14.73;;;4.67;;
9948;SDS011;5013;51.840;8.276;2023-05-29T02:30:53;19.13;;;4.90;;
9948;SDS011;5013;51.840;8.276;2023-05-29T02:33:19;20.47;;;5.10;;
9948;SDS011;5013;51.840;8.276;2023-05-29T02:35:45;22.47;;;4.90;;
9948;SDS011;5013;51.840;8.276;2023-05-29T02:38:11;14.00;;;4.87;;
9948;SDS011;5013;51.840;8.276;2023-05-29T02:40:36;16.87;;;4.53;;
9948;SDS011;5013;51.840;8.276;2023-05-29T02:43:02;12.70;;;4.30;;
9948;SDS011;5013;51.840;8.276;2023-05-29T02:45:27;10.60;;;4.40;;
9948;SDS011;5013;51.840;8.276;2023-05-29T02:47:53;16.00;;;4.50;;
9948;SDS011;5013;51.840;8.276;2023-05-29T02:50:18;14.40;;;4.37;;
9948;SDS011;5013;51.840;8.276;2023-05-29T02:52:44;12.23;;;4.30;;
9948;SDS011;5013;51.840;8.276;2023-05-29T02:55:10;11.87;;;3.90;;
9948;SDS011;5013;51.840;8.276;2023-05-29T02:57:35;11.63;;;4.27;;
9948;SDS011;5013;51.840;8.276;2023-05-29T03:00:01;17.87;;;4.00;;
9948;SDS011;5013;51.840;8.276;2023-05-29T03:02:30;21.80;;;4.10;;
9948;SDS011;5013;51.840;8.276;2023-05-29T03:04:56;12.80;;;4.37;;
9948;SDS011;5013;51.840;8.276;2023-05-29T03:07:21;16.10;;;4.47;;
9948;SDS011;5013;51.840;8.276;2023-05-29T03:09:47;16.53;;;4.50;;
9948;SDS011;5013;51.840;8.276;2023-05-29T03:12:12;16.93;;;5.07;;
9948;SDS011;5013;51.840;8.276;2023-05-29T03:14:38;13.37;;;4.23;;
9948;SDS011;5013;51.840;8.276;2023-05-29T03:17:04;14.40;;;4.53;;
9948;SDS011;5013;51.840;8.276;2023-05-29T03:19:30;12.30;;;4.43;;
9948;SDS011;5013;51.840;8.276;2023-05-29T03:21:56;15.23;;;4.20;;
9948;SDS011;5013;51.840;8.276;2023-05-29T03:24:21;17.80;;;4.67;;
9948;SDS011;5013;51.840;8.276;2023-05-29T03:26:48;14.20;;;4.57;;
9948;SDS011;5013;51.840;8.276;2023-05-29T03:29:14;23.53;;;4.30;;
9948;SDS011;5013;51.840;8.276;2023-05-29T03:31:41;21.60;;;4.93;;
9948;SDS011;5013;51.840;8.276;2023-05-29T03:34:07;17.33;;;4.37;;
9948;SDS011;5013;51.840;8.276;2023-05-29T03:36:32;12.10;;;4.23;;
9948;SDS011;5013;51.840;8.276;2023-05-29T03:38:58;12.17;;;3.80;;
9948;SDS011;5013;51.840;8.276;2023-05-29T03:41:23;15.90;;;4.53;;
9948;SDS011;5013;51.840;8.276;2023-05-29T03:43:50;13.67;;;4.40;;
9948;SDS011;5013;51.840;8.276;2023-05-29T03:46:16;22.60;;;5.23;;
9948;SDS011;5013;51.840;8.276;2023-05-29T03:48:41;19.27;;;4.37;;
9948;SDS011;5013;51.840;8.276;2023-05-29T03:51:07;13.73;;;3.73;;
9948;SDS011;5013;51.840;8.276;2023-05-29T03:53:33;11.73;;;3.93;;
9948;SDS011;5013;51.840;8.276;2023-05-29T03:55:58;17.33;;;4.23;;
9948;SDS011;5013;51.840;8.276;2023-05-29T03:58:24;17.63;;;4.27;;
9948;SDS011;5013;51.840;8.276;2023-05-29T04:00:49;15.27;;;4.73;;
9948;SDS011;5013;51.840;8.276;2023-05-29T04:03:15;12.53;;;3.97;;
9948;SDS011;5013;51.840;8.276;2023-05-29T04:05:40;11.30;;;4.23;;
9948;SDS011;5013;51.840;8.276;2023-05-29T04:08:06;14.90;;;4.37;;
9948;SDS011;5013;51.840;8.276;2023-05-29T04:10:33;18.07;;;4.00;;
9948;SDS011;5013;51.840;8.276;2023-05-29T04:12:59;13.27;;;3.73;;
9948;SDS011;5013;51.840;8.276;2023-05-29T04:15:26;12.03;;;3.70;;
9948;SDS011;5013;51.840;8.276;2023-05-29T04:17:52;15.77;;;4.30;;
9948;SDS011;5013;51.840;8.276;2023-05-29T04:20:17;10.93;;;3.73;;
9948;SDS011;5013;51.840;8.276;2023-05-29T04:22:43;12.47;;;3.73;;
9948;SDS011;5013;51.840;8.276;2023-05-29T04:25:08;12.83;;;4.43;;
9948;SDS011;5013;51.840;8.276;2023-05-29T04:27:34;19.73;;;4.40;;
9948;SDS011;5013;51.840;8.276;2023-05-29T04:30:03;12.30;;;4.23;;
9948;SDS011;5013;51.840;8.276;2023-05-29T04:32:30;11.43;;;4.00;;
9948;SDS011;5013;51.840;8.276;2023-05-29T04:34:56;13.50;;;3.87;;
9948;SDS011;5013;51.840;8.276;2023-05-29T04:37:21;11.53;;;3.73;;
9948;SDS011;5013;51.840;8.276;2023-05-29T04:39:54;14.77;;;3.83;;
9948;SDS011;5013;51.840;8.276;2023-05-29T04:42:20;13.53;;;4.17;;
9948;SDS011;5013;51.840;8.276;2023-05-29T04:44:45;14.43;;;4.13;;
9948;SDS011;5013;51.840;8.276;2023-05-29T04:47:11;10.17;;;3.30;;
9948;SDS011;5013;51.840;8.276;2023-05-29T04:49:39;14.70;;;3.90;;
9948;SDS011;5013;51.840;8.276;2023-05-29T04:52:05;11.73;;;4.40;;
9948;SDS011;5013;51.840;8.276;2023-05-29T04:54:31;14.90;;;4.17;;
9948;SDS011;5013;51.840;8.276;2023-05-29T04:56:56;14.10;;;3.77;;
9948;SDS011;5013;51.840;8.276;2023-05-29T04:59:22;12.70;;;3.87;;
9948;SDS011;5013;51.840;8.276;2023-05-29T05:01:47;13.27;;;3.97;;
9948;SDS011;5013;51.840;8.276;2023-05-29T05:04:13;17.03;;;4.00;;
9948;SDS011;5013;51.840;8.276;2023-05-29T05:06:38;12.60;;;4.00;;
9948;SDS011;5013;51.840;8.276;2023-05-29T05:09:04;14.83;;;4.23;;
9948;SDS011;5013;51.840;8.276;2023-05-29T05:11:29;8.83;;;3.70;;
9948;SDS011;5013;51.840;8.276;2023-05-29T05:13:55;11.70;;;3.70;;
9948;SDS011;5013;51.840;8.276;2023-05-29T05:16:20;8.30;;;2.97;;
9948;SDS011;5013;51.840;8.276;2023-05-29T05:18:46;12.47;;;3.53;;
9948;SDS011;5013;51.840;8.276;2023-05-29T05:21:12;19.77;;;4.03;;
9948;SDS011;5013;51.840;8.276;2023-05-29T05:23:37;11.33;;;3.23;;
9948;SDS011;5013;51.840;8.276;2023-05-29T05:26:03;10.20;;;3.23;;
9948;SDS011;5013;51.840;8.276;2023-05-29T05:28:29;10.23;;;3.40;;
9948;SDS011;5013;51.840;8.276;2023-05-29T05:30:55;13.20;;;3.87;;
9948;SDS011;5013;51.840;8.276;2023-05-29T05:33:21;14.47;;;4.00;;
9948;SDS011;5013;51.840;8.276;2023-05-29T05:35:46;9.80;;;3.43;;
9948;SDS011;5013;51.840;8.276;2023-05-29T05:38:12;10.43;;;3.40;;
9948;SDS011;5013;51.840;8.276;2023-05-29T05:40:37;12.90;;;4.07;;
9948;SDS011;5013;51.840;8.276;2023-05-29T05:43:03;9.17;;;2.93;;
9948;SDS011;5013;51.840;8.276;2023-05-29T05:45:29;17.10;;;3.87;;
9948;SDS011;5013;51.840;8.276;2023-05-29T05:47:54;15.37;;;3.87;;
9948;SDS011;5013;51.840;8.276;2023-05-29T05:50:21;14.20;;;3.60;;
9948;SDS011;5013;51.840;8.276;2023-05-29T05:52:47;12.43;;;3.80;;
9948;SDS011;5013;51.840;8.276;2023-05-29T05:55:12;12.70;;;3.83;;
9948;SDS011;5013;51.840;8.276;2023-05-29T05:57:38;16.63;;;4.13;;
9948;SDS011;5013;51.840;8.276;2023-05-29T06:00:04;11.90;;;3.90;;
9948;SDS011;5013;51.840;8.276;2023-05-29T06:02:36;12.43;;;3.80;;
9948;SDS011;5013;51.840;8.276;2023-05-29T06:05:02;17.10;;;4.07;;
9948;SDS011;5013;51.840;8.276;2023-05-29T06:07:28;15.37;;;4.17;;
9948;SDS011;5013;51.840;8.276;2023-05-29T06:09:55;11.83;;;3.63;;
9948;SDS011;5013;51.840;8.276;2023-05-29T06:12:20;11.37;;;3.60;;
9948;SDS011;5013;51.840;8.276;2023-05-29T06:14:46;9.57;;;3.27;;
9948;SDS011;5013;51.840;8.276;2023-05-29T06:17:11;13.73;;;3.73;;
9948;SDS011;5013;51.840;8.276;2023-05-29T06:19:38;9.13;;;3.80;;
9948;SDS011;5013;51.840;8.276;2023-05-29T06:22:03;12.10;;;3.57;;
9948;SDS011;5013;51.840;8.276;2023-05-29T06:24:30;14.07;;;3.67;;
9948;SDS011;5013;51.840;8.276;2023-05-29T06:26:56;14.87;;;3.80;;
9948;SDS011;5013;51.840;8.276;2023-05-29T06:29:21;15.43;;;3.83;;
9948;SDS011;5013;51.840;8.276;2023-05-29T06:31:47;10.40;;;3.17;;
9948;SDS011;5013;51.840;8.276;2023-05-29T06:34:12;12.90;;;3.80;;
9948;SDS011;5013;51.840;8.276;2023-05-29T06:36:38;11.03;;;3.40;;
9948;SDS011;5013;51.840;8.276;2023-05-29T06:39:05;11.70;;;3.80;;
9948;SDS011;5013;51.840;8.276;2023-05-29T06:41:30;12.23;;;4.27;;
9948;SDS011;5013;51.840;8.276;2023-05-29T06:43:56;14.67;;;4.07;;
9948;SDS011;5013;51.840;8.276;2023-05-29T06:46:21;16.07;;;3.40;;
9948;SDS011;5013;51.840;8.276;2023-05-29T06:48:47;14.93;;;4.27;;
9948;SDS011;5013;51.840;8.276;2023-05-29T06:51:13;11.70;;;3.77;;
9948;SDS011;5013;51.840;8.276;2023-05-29T06:53:38;15.67;;;4.10;;
9948;SDS011;5013;51.840;8.276;2023-05-29T06:56:04;9.03;;;3.47;;
9948;SDS011;5013;51.840;8.276;2023-05-29T06:58:30;12.20;;;3.40;;
9948;SDS011;5013;51.840;8.276;2023-05-29T07:00:57;11.27;;;3.57;;
9948;SDS011;5013;51.840;8.276;2023-05-29T07:03:24;10.40;;;3.63;;
9948;SDS011;5013;51.840;8.276;2023-05-29T07:05:50;8.80;;;3.37;;
9948;SDS011;5013;51.840;8.276;2023-05-29T07:08:16;14.93;;;3.67;;
9948;SDS011;5013;51.840;8.276;2023-05-29T07:10:42;11.57;;;3.70;;
9948;SDS011;5013;51.840;8.276;2023-05-29T07:13:07;15.20;;;4.07;;
9948;SDS011;5013;51.840;8.276;2023-05-29T07:15:33;14.03;;;3.57;;
9948;SDS011;5013;51.840;8.276;2023-05-29T07:17:59;14.53;;;3.67;;
9948;SDS011;5013;51.840;8.276;2023-05-29T07:20:25;16.30;;;4.33;;
9948;SDS011;5013;51.840;8.276;2023-05-29T07:22:50;9.67;;;3.40;;
9948;SDS011;5013;51.840;8.276;2023-05-29T07:25:16;13.43;;;4.07;;
9948;SDS011;5013;51.840;8.276;2023-05-29T07:27:41;13.10;;;3.80;;
9948;SDS011;5013;51.840;8.276;2023-05-29T07:30:07;13.00;;;3.97;;
9948;SDS011;5013;51.840;8.276;2023-05-29T07:32:33;9.73;;;3.60;;
9948;SDS011;5013;51.840;8.276;2023-05-29T07:34:59;9.20;;;3.33;;
9948;SDS011;5013;51.840;8.276;2023-05-29T07:37:24;12.77;;;3.77;;
9948;SDS011;5013;51.840;8.276;2023-05-29T07:39:50;13.13;;;3.50;;
9948;SDS011;5013;51.840;8.276;2023-05-29T07:42:16;13.00;;;4.20;;
9948;SDS011;5013;51.840;8.276;2023-05-29T07:44:41;10.83;;;3.40;;
9948;SDS011;5013;51.840;8.276;2023-05-29T07:47:08;11.53;;;4.13;;
9948;SDS011;5013;51.840;8.276;2023-05-29T07:49:34;13.40;;;4.10;;
9948;SDS011;5013;51.840;8.276;2023-05-29T07:52:01;11.10;;;3.60;;
9948;SDS011;5013;51.840;8.276;2023-05-29T07:54:30;9.93;;;3.50;;
9948;SDS011;5013;51.840;8.276;2023-05-29T07:56:58;12.70;;;4.03;;
9948;SDS011;5013;51.840;8.276;2023-05-29T07:59:24;11.50;;;4.27;;
9948;SDS011;5013;51.840;8.276;2023-05-29T08:01:50;10.87;;;3.23;;
9948;SDS011;5013;51.840;8.276;2023-05-29T08:04:16;18.27;;;4.23;;
9948;SDS011;5013;51.840;8.276;2023-05-29T08:06:42;13.87;;;3.63;;
9948;SDS011;5013;51.840;8.276;2023-05-29T08:09:08;15.73;;;3.93;;
9948;SDS011;5013;51.840;8.276;2023-05-29T08:11:35;9.00;;;3.57;;
9948;SDS011;5013;51.840;8.276;2023-05-29T08:14:01;17.83;;;4.10;;
9948;SDS011;5013;51.840;8.276;2023-05-29T08:16:27;12.20;;;3.90;;
9948;SDS011;5013;51.840;8.276;2023-05-29T08:18:52;13.87;;;3.70;;
9948;SDS011;5013;51.840;8.276;2023-05-29T08:21:18;14.10;;;4.23;;
9948;SDS011;5013;51.840;8.276;2023-05-29T08:23:44;12.40;;;3.63;;
9948;SDS011;5013;51.840;8.276;2023-05-29T08:26:10;11.63;;;3.97;;
9948;SDS011;5013;51.840;8.276;2023-05-29T08:28:35;10.47;;;3.70;;
9948;SDS011;5013;51.840;8.276;2023-05-29T08:31:01;9.97;;;3.50;;
9948;SDS011;5013;51.840;8.276;2023-05-29T08:33:27;14.37;;;4.20;;
9948;SDS011;5013;51.840;8.276;2023-05-29T08:35:52;12.93;;;3.47;;
9948;SDS011;5013;51.840;8.276;2023-05-29T08:38:18;7.67;;;3.03;;
9948;SDS011;5013;51.840;8.276;2023-05-29T08:40:46;13.67;;;3.90;;
9948;SDS011;5013;51.840;8.276;2023-05-29T08:43:12;13.23;;;3.50;;
9948;SDS011;5013;51.840;8.276;2023-05-29T08:45:42;9.77;;;3.27;;
9948;SDS011;5013;51.840;8.276;2023-05-29T08:48:09;12.33;;;3.57;;
9948;SDS011;5013;51.840;8.276;2023-05-29T08:50:36;11.70;;;3.77;;
9948;SDS011;5013;51.840;8.276;2023-05-29T08:53:09;7.50;;;2.90;;
9948;SDS011;5013;51.840;8.276;2023-05-29T08:55:35;12.27;;;3.27;;
9948;SDS011;5013;51.840;8.276;2023-05-29T08:58:01;12.90;;;3.87;;
9948;SDS011;5013;51.840;8.276;2023-05-29T09:00:28;16.63;;;4.03;;
9948;SDS011;5013;51.840;8.276;2023-05-29T09:02:54;11.90;;;3.60;;
9948;SDS011;5013;51.840;8.276;2023-05-29T09:05:20;11.23;;;3.00;;
9948;SDS011;5013;51.840;8.276;2023-05-29T09:07:46;12.90;;;3.97;;
9948;SDS011;5013;51.840;8.276;2023-05-29T09:10:14;17.00;;;4.10;;
9948;SDS011;5013;51.840;8.276;2023-05-29T09:12:40;13.67;;;3.70;;
9948;SDS011;5013;51.840;8.276;2023-05-29T09:15:16;13.93;;;3.77;;
9948;SDS011;5013;51.840;8.276;2023-05-29T09:17:56;14.80;;;3.60;;
9948;SDS011;5013;51.840;8.276;2023-05-29T09:20:23;13.47;;;3.40;;
9948;SDS011;5013;51.840;8.276;2023-05-29T09:22:52;9.97;;;3.43;;
9948;SDS011;5013;51.840;8.276;2023-05-29T09:25:19;8.63;;;3.30;;
9948;SDS011;5013;51.840;8.276;2023-05-29T09:27:48;11.73;;;3.30;;
9948;SDS011;5013;51.840;8.276;2023-05-29T09:33:05;10.53;;;3.90;;
9948;SDS011;5013;51.840;8.276;2023-05-29T09:35:32;11.57;;;3.23;;
9948;SDS011;5013;51.840;8.276;2023-05-29T09:37:59;12.27;;;3.97;;
9948;SDS011;5013;51.840;8.276;2023-05-29T09:40:25;10.70;;;3.70;;
9948;SDS011;5013;51.840;8.276;2023-05-29T09:42:50;12.27;;;4.30;;
9948;SDS011;5013;51.840;8.276;2023-05-29T09:45:17;13.90;;;3.73;;
9948;SDS011;5013;51.840;8.276;2023-05-29T09:47:43;10.63;;;3.60;;
9948;SDS011;5013;51.840;8.276;2023-05-29T09:50:17;15.67;;;3.90;;
9948;SDS011;5013;51.840;8.276;2023-05-29T09:52:45;8.53;;;3.47;;
9948;SDS011;5013;51.840;8.276;2023-05-29T09:55:11;11.87;;;4.03;;
9948;SDS011;5013;51.840;8.276;2023-05-29T09:57:44;7.47;;;3.27;;
9948;SDS011;5013;51.840;8.276;2023-05-29T10:00:11;11.30;;;4.00;;
9948;SDS011;5013;51.840;8.276;2023-05-29T10:02:38;8.97;;;3.17;;
9948;SDS011;5013;51.840;8.276;2023-05-29T10:05:05;14.30;;;3.50;;
9948;SDS011;5013;51.840;8.276;2023-05-29T10:07:33;8.80;;;3.37;;
9948;SDS011;5013;51.840;8.276;2023-05-29T10:10:04;12.07;;;3.47;;
9948;SDS011;5013;51.840;8.276;2023-05-29T10:12:42;10.97;;;3.60;;
9948;SDS011;5013;51.840;8.276;2023-05-29T10:15:14;10.37;;;3.30;;
9948;SDS011;5013;51.840;8.276;2023-05-29T10:17:49;8.80;;;3.10;;
9948;SDS011;5013;51.840;8.276;2023-05-29T10:20:15;11.53;;;3.37;;
9948;SDS011;5013;51.840;8.276;2023-05-29T10:22:45;11.00;;;3.33;;
9948;SDS011;5013;51.840;8.276;2023-05-29T10:25:13;11.63;;;3.23;;
9948;SDS011;5013;51.840;8.276;2023-05-29T10:27:40;7.97;;;3.50;;
9948;SDS011;5013;51.840;8.276;2023-05-29T10:35:40;11.83;;;3.50;;
9948;SDS011;5013;51.840;8.276;2023-05-29T10:38:13;7.90;;;3.23;;
9948;SDS011;5013;51.840;8.276;2023-05-29T10:40:42;6.63;;;3.23;;
9948;SDS011;5013;51.840;8.276;2023-05-29T10:43:08;11.07;;;3.77;;
9948;SDS011;5013;51.840;8.276;2023-05-29T10:53:03;12.23;;;3.70;;
9948;SDS011;5013;51.840;8.276;2023-05-29T10:55:35;7.80;;;3.13;;
9948;SDS011;5013;51.840;8.276;2023-05-29T10:58:04;10.67;;;3.20;;
9948;SDS011;5013;51.840;8.276;2023-05-29T11:00:49;14.33;;;3.70;;
9948;SDS011;5013;51.840;8.276;2023-05-29T11:03:19;7.33;;;3.30;;
9948;SDS011;5013;51.840;8.276;2023-05-29T11:06:02;9.73;;;3.60;;
9948;SDS011;5013;51.840;8.276;2023-05-29T11:08:41;6.17;;;2.90;;
9948;SDS011;5013;51.840;8.276;2023-05-29T11:11:11;6.53;;;3.13;;
9948;SDS011;5013;51.840;8.276;2023-05-29T11:13:37;9.03;;;3.30;;
9948;SDS011;5013;51.840;8.276;2023-05-29T11:18:59;10.27;;;3.27;;
9948;SDS011;5013;51.840;8.276;2023-05-29T11:24:25;6.40;;;2.83;;
9948;SDS011;5013;51.840;8.276;2023-05-29T11:26:52;8.50;;;3.43;;
9948;SDS011;5013;51.840;8.276;2023-05-29T11:29:23;7.00;;;3.00;;
9948;SDS011;5013;51.840;8.276;2023-05-29T11:32:11;10.40;;;3.10;;
9948;SDS011;5013;51.840;8.276;2023-05-29T11:34:39;8.83;;;3.43;;
9948;SDS011;5013;51.840;8.276;2023-05-29T11:37:06;9.67;;;3.47;;
9948;SDS011;5013;51.840;8.276;2023-05-29T11:39:35;9.90;;;3.50;;
9948;SDS011;5013;51.840;8.276;2023-05-29T11:42:01;6.40;;;3.10;;
9948;SDS011;5013;51.840;8.276;2023-05-29T11:44:27;6.50;;;3.50;;
9948;SDS011;5013;51.840;8.276;2023-05-29T11:47:02;7.77;;;3.37;;
9948;SDS011;5013;51.840;8.276;2023-05-29T11:49:30;10.10;;;3.83;;
9948;SDS011;5013;51.840;8.276;2023-05-29T11:52:05;12.57;;;3.90;;
9948;SDS011;5013;51.840;8.276;2023-05-29T11:54:35;8.03;;;3.30;;
9948;SDS011;5013;51.840;8.276;2023-05-29T11:57:01;7.37;;;3.20;;
9948;SDS011;5013;51.840;8.276;2023-05-29T11:59:31;6.87;;;3.40;;
9948;SDS011;5013;51.840;8.276;2023-05-29T12:01:57;10.87;;;4.30;;
9948;SDS011;5013;51.840;8.276;2023-05-29T12:04:23;10.10;;;3.33;;
9948;SDS011;5013;51.840;8.276;2023-05-29T12:06:49;9.07;;;3.53;;
9948;SDS011;5013;51.840;8.276;2023-05-29T12:09:24;7.97;;;3.43;;
9948;SDS011;5013;51.840;8.276;2023-05-29T12:11:51;5.70;;;2.93;;
9948;SDS011;5013;51.840;8.276;2023-05-29T12:14:17;7.93;;;3.23;;
9948;SDS011;5013;51.840;8.276;2023-05-29T12:16:43;6.83;;;3.30;;
9948;SDS011;5013;51.840;8.276;2023-05-29T12:19:08;6.67;;;3.30;;
9948;SDS011;5013;51.840;8.276;2023-05-29T12:21:34;7.27;;;3.40;;
9948;SDS011;5013;51.840;8.276;2023-05-29T12:24:00;6.33;;;3.03;;
9948;SDS011;5013;51.840;8.276;2023-05-29T12:26:26;8.67;;;3.60;;
9948;SDS011;5013;51.840;8.276;2023-05-29T12:28:54;7.20;;;3.70;;
9948;SDS011;5013;51.840;8.276;2023-05-29T12:31:26;9.82;;;3.53;;
9948;SDS011;5013;51.840;8.276;2023-05-29T12:33:53;6.65;;;3.30;;
9948;SDS011;5013;51.840;8.276;2023-05-29T12:36:25;9.97;;;3.80;;
9948;SDS011;5013;51.840;8.276;2023-05-29T12:38:51;8.43;;;3.50;;
9948;SDS011;5013;51.840;8.276;2023-05-29T12:41:27;7.53;;;3.23;;
9948;SDS011;5013;51.840;8.276;2023-05-29T12:43:57;8.00;;;3.27;;
9948;SDS011;5013;51.840;8.276;2023-05-29T12:46:26;6.13;;;3.40;;
9948;SDS011;5013;51.840;8.276;2023-05-29T12:48:53;7.57;;;3.00;;
9948;SDS011;5013;51.840;8.276;2023-05-29T12:51:26;6.70;;;3.13;;
9948;SDS011;5013;51.840;8.276;2023-05-29T12:53:52;8.47;;;3.30;;
9948;SDS011;5013;51.840;8.276;2023-05-29T12:56:20;9.43;;;3.33;;
9948;SDS011;5013;51.840;8.276;2023-05-29T12:58:48;11.63;;;4.23;;
9948;SDS011;5013;51.840;8.276;2023-05-29T13:01:14;10.53;;;3.20;;
9948;SDS011;5013;51.840;8.276;2023-05-29T13:03:40;11.20;;;3.40;;
9948;SDS011;5013;51.840;8.276;2023-05-29T13:06:06;8.57;;;2.90;;
9948;SDS011;5013;51.840;8.276;2023-05-29T13:08:32;6.97;;;3.80;;
9948;SDS011;5013;51.840;8.276;2023-05-29T13:10:57;5.83;;;3.00;;
9948;SDS011;5013;51.840;8.276;2023-05-29T13:13:23;4.93;;;3.10;;
9948;SDS011;5013;51.840;8.276;2023-05-29T13:15:49;8.13;;;3.30;;
9948;SDS011;5013;51.840;8.276;2023-05-29T13:18:14;8.23;;;3.20;;
9948;SDS011;5013;51.840;8.276;2023-05-29T13:20:40;8.77;;;3.60;;
9948;SDS011;5013;51.840;8.276;2023-05-29T13:23:05;9.80;;;3.23;;
9948;SDS011;5013;51.840;8.276;2023-05-29T13:25:32;9.47;;;3.20;;
9948;SDS011;5013;51.840;8.276;2023-05-29T13:27:57;8.65;;;3.63;;
9948;SDS011;5013;51.840;8.276;2023-05-29T13:30:23;7.47;;;3.60;;
9948;SDS011;5013;51.840;8.276;2023-05-29T13:32:49;13.23;;;4.07;;
9948;SDS011;5013;51.840;8.276;2023-05-29T13:35:16;5.65;;;3.03;;
9948;SDS011;5013;51.840;8.276;2023-05-29T13:37:41;9.33;;;3.17;;
9948;SDS011;5013;51.840;8.276;2023-05-29T13:40:08;8.27;;;3.63;;
9948;SDS011;5013;51.840;8.276;2023-05-29T13:42:34;10.87;;;3.13;;
9948;SDS011;5013;51.840;8.276;2023-05-29T13:45:00;9.03;;;3.60;;
9948;SDS011;5013;51.840;8.276;2023-05-29T13:47:26;11.10;;;3.50;;
9948;SDS011;5013;51.840;8.276;2023-05-29T13:49:57;7.80;;;3.47;;
9948;SDS011;5013;51.840;8.276;2023-05-29T13:52:22;8.03;;;3.70;;
9948;SDS011;5013;51.840;8.276;2023-05-29T13:54:48;7.40;;;3.27;;
9948;SDS011;5013;51.840;8.276;2023-05-29T13:57:13;12.60;;;3.63;;
9948;SDS011;5013;51.840;8.276;2023-05-29T13:59:39;11.77;;;3.70;;
9948;SDS011;5013;51.840;8.276;2023-05-29T14:02:05;7.67;;;3.33;;
9948;SDS011;5013;51.840;8.276;2023-05-29T14:04:32;7.73;;;3.60;;
9948;SDS011;5013;51.840;8.276;2023-05-29T14:06:58;8.73;;;3.90;;
9948;SDS011;5013;51.840;8.276;2023-05-29T14:09:24;6.60;;;3.40;;
9948;SDS011;5013;51.840;8.276;2023-05-29T14:11:56;8.10;;;3.77;;
9948;SDS011;5013;51.840;8.276;2023-05-29T14:14:25;8.03;;;3.47;;
9948;SDS011;5013;51.840;8.276;2023-05-29T14:16:51;8.10;;;3.77;;
9948;SDS011;5013;51.840;8.276;2023-05-29T14:19:18;6.40;;;3.67;;
9948;SDS011;5013;51.840;8.276;2023-05-29T14:21:44;7.17;;;3.37;;
9948;SDS011;5013;51.840;8.276;2023-05-29T14:24:10;5.47;;;3.27;;
9948;SDS011;5013;51.840;8.276;2023-05-29T14:26:35;9.17;;;3.50;;
9948;SDS011;5013;51.840;8.276;2023-05-29T14:29:01;8.37;;;3.70;;
9948;SDS011;5013;51.840;8.276;2023-05-29T14:31:27;10.07;;;3.70;;
9948;SDS011;5013;51.840;8.276;2023-05-29T14:33:53;9.47;;;3.50;;
9948;SDS011;5013;51.840;8.276;2023-05-29T14:36:18;10.20;;;3.80;;
9948;SDS011;5013;51.840;8.276;2023-05-29T14:38:44;9.70;;;3.70;;
9948;SDS011;5013;51.840;8.276;2023-05-29T14:41:11;7.20;;;3.83;;
9948;SDS011;5013;51.840;8.276;2023-05-29T14:43:37;11.63;;;3.50;;
9948;SDS011;5013;51.840;8.276;2023-05-29T14:46:04;11.40;;;3.30;;
9948;SDS011;5013;51.840;8.276;2023-05-29T14:48:30;11.87;;;3.30;;
9948;SDS011;5013;51.840;8.276;2023-05-29T14:50:55;7.70;;;3.50;;
9948;SDS011;5013;51.840;8.276;2023-05-29T14:53:21;10.67;;;3.37;;
9948;SDS011;5013;51.840;8.276;2023-05-29T14:55:47;7.50;;;3.10;;
9948;SDS011;5013;51.840;8.276;2023-05-29T14:58:13;8.97;;;3.47;;
9948;SDS011;5013;51.840;8.276;2023-05-29T15:00:39;6.43;;;3.17;;
9948;SDS011;5013;51.840;8.276;2023-05-29T15:03:05;9.43;;;3.97;;
9948;SDS011;5013;51.840;8.276;2023-05-29T15:05:30;5.23;;;3.73;;
9948;SDS011;5013;51.840;8.276;2023-05-29T15:07:56;6.93;;;3.60;;
9948;SDS011;5013;51.840;8.276;2023-05-29T15:10:23;8.73;;;3.20;;
9948;SDS011;5013;51.840;8.276;2023-05-29T15:12:49;7.53;;;3.53;;
9948;SDS011;5013;51.840;8.276;2023-05-29T15:15:21;10.60;;;3.23;;
9948;SDS011;5013;51.840;8.276;2023-05-29T15:17:51;7.60;;;3.57;;
9948;SDS011;5013;51.840;8.276;2023-05-29T15:20:21;6.57;;;3.37;;
9948;SDS011;5013;51.840;8.276;2023-05-29T15:22:51;8.43;;;3.83;;
9948;SDS011;5013;51.840;8.276;2023-05-29T15:25:17;11.17;;;3.63;;
9948;SDS011;5013;51.840;8.276;2023-05-29T15:27:44;8.93;;;3.83;;
9948;SDS011;5013;51.840;8.276;2023-05-29T15:30:13;10.67;;;4.30;;